• Join FlightAware (Why Join?)
  • Login
  • US Flag 
03:20PM EDT


 

Airport Tracker/Info


-or-


 

Live Flight TrackerFlight Track Log ✈ FIN666 ✈ 14-Jan-2014 ✈ EKCH / CPH - EFHK / HEL

Flight Track Log - Related Links

Times and Time Zones

All times are in EST time to prevent confusion due to time zone crossing. See the FIN666 flight status page for this flight to view local times or setup timezone preferences in your user account.

Time Position Orientation Groundspeed Altitude Reporting Facility
EST Latitude Longitude Course Direction KTS MPH feet Rate Location/Type
07:23AM 55.8520 13.1400 49° Northeast  Level Estimated
07:24AM 55.9296 13.3027 50° Northeast  Level Estimated
07:25AM 56.0070 13.4660 50° Northeast  Level Estimated
07:26AM 56.0842 13.6299 50° Northeast  Level Estimated
07:27AM 56.1648 13.8023 50° Northeast  Level Estimated
07:28AM 56.2451 13.9753 50° Northeast  Level Estimated
07:29AM 56.3252 14.1491 50° Northeast  Level Estimated
07:30AM 56.4050 14.3237 50° Northeast  Level Estimated
07:31AM 56.4846 14.4989 51° Northeast  Level Estimated
07:32AM 56.5640 14.6749 51° Northeast  Level Estimated
07:33AM 56.6431 14.8516 51° Northeast  Level Estimated
07:34AM 56.7219 15.0291 51° Northeast  Level Estimated
07:35AM 56.8005 15.2073 51° Northeast  Level Estimated
07:36AM 56.8789 15.3863 51° Northeast  Level Estimated
07:37AM 56.9569 15.5660 51° Northeast  Level Estimated
07:38AM 57.0348 15.7464 52° Northeast  Level Estimated
07:39AM 57.1123 15.9277 52° Northeast  Level Estimated
07:40AM 57.1896 16.1096 52° Northeast  Level Estimated
07:41AM 57.2667 16.2924 52° Northeast  Level Estimated
07:42AM 57.3434 16.4759 52° Northeast  Level Estimated
07:43AM 57.4199 16.6602 52° Northeast  Level Estimated
07:44AM 57.4962 16.8452 52° Northeast  Level Estimated
07:45AM 57.5721 17.0310 53° Northeast  Level Estimated
07:46AM 57.6478 17.2176 53° Northeast  Level Estimated
07:47AM 57.7232 17.4050 53° Northeast  Level Estimated
07:48AM 57.7983 17.5931 53° Northeast  Level Estimated
07:49AM 57.8732 17.7821 53° Northeast  Level Estimated
07:50AM 57.9478 17.9718 53° Northeast  Level Estimated
07:51AM 58.0220 18.1623 54° Northeast  Level Estimated
07:52AM 58.0960 18.3536 54° Northeast  Level Estimated
07:53AM 58.1697 18.5457 54° Northeast  Level Estimated
07:54AM 58.2432 18.7386 54° Northeast  Level Estimated
07:55AM 58.3163 18.9323 54° Northeast  Level Estimated
07:56AM 58.3891 19.1268 54° Northeast  Level Estimated
07:57AM 58.4617 19.3221 55° Northeast  Level Estimated
07:58AM 58.5339 19.5182 55° Northeast  Level Estimated
07:59AM 58.6059 19.7151 55° Northeast  Level Estimated
08:00AM 58.6775 19.9128 55° Northeast  Level Estimated
08:01AM 58.7488 20.1113 55° Northeast  Level Estimated
08:02AM 58.8199 20.3107 55° Northeast  Level Estimated
08:03AM 58.8906 20.5109 56° Northeast  Level Estimated
08:04AM 58.9610 20.7118 56° Northeast  Level Estimated
08:05AM 59.0311 20.9137 56° Northeast  Level Estimated
08:06AM 59.1009 21.1163 56° Northeast  Level Estimated
08:07AM 59.1703 21.3197 56° Northeast  Level Estimated
08:08AM 59.2395 21.5240 56° Northeast  Level Estimated
08:09AM 59.3083 21.7291 57° Northeast  Level Estimated
08:10AM 59.3757 21.9319 57° Northeast  Level Estimated
08:11AM 59.4429 22.1355 57° Northeast  Level Estimated
08:12AM 59.5097 22.3398 57° Northeast  Level Estimated
08:13AM 59.5762 22.5450 57° Northeast  Level Estimated
08:14AM 59.6424 22.7510 57° Northeast  Level Estimated
08:15AM 59.7082 22.9578 58° Northeast  Level Estimated
08:16AM 59.7737 23.1654 58° Northeast  Level Estimated
08:17AM 59.8389 23.3739 58° Northeast  Level Estimated
08:18AM 59.9038 23.5831 58° Northeast  Level Estimated
08:19AM 59.9683 23.7932 58° Northeast  Level Estimated
08:20AM 60.0325 24.0041 59° Northeast  Level Estimated
08:21AM 60.0964 24.2158 59° Northeast  Level Estimated
08:22AM 60.1599 24.4283 59° Northeast  Level Estimated
08:23AM 60.2231 24.6417 59° Northeast  Level Estimated
08:24AM 60.2859 24.8558 59° Northeast  Level Estimated
08:25AM 60.3172 24.9633 59° Northeast  Level Estimated
08:26AM 60.3172 24.9633 37° Northeast  Level Estimated
08:27AM 60.3172 24.9633 37° Northeast  Level Estimated
08:28AM 60.3172 24.9633 37° Northeast  Level Estimated
08:29AM 60.3172 24.9633 37° Northeast  Level Estimated
08:30AM 60.3172 24.9633 37° Northeast  Level Estimated
08:31AM 60.3172 24.9633 37° Northeast  Level Estimated
08:32AM 60.3172 24.9633 37° Northeast  Level Estimated
08:33AM 60.3172 24.9633 37° Northeast  Level Estimated
08:34AM 60.3172 24.9633 37° Northeast  Level Estimated
08:35AM 60.3172 24.9633 37° Northeast  Level Estimated
08:36AM 60.3172 24.9633 37° Northeast  Level Estimated
08:37AM 60.3172 24.9633 37° Northeast  Level Estimated
08:38AM 60.3172 24.9633 37° Northeast  Level Estimated
08:39AM 60.3172 24.9633 37° Northeast  Level Estimated